Robins AFB, Georgia
Current Conditions -  °F | °C
As of 5:58 PM on Tuesday 27 Jan 2015 (Local Time) from KWRB Reporting Station
Clear Clear  
Wind Chill: 44°   Ceiling: Unl
Heat Index: 49°   Visibility: 10mi
Dew Point: 27°   Wind: 16mph
Humidity: 41%   Direction: 340°NNW
Pressure: 29.98"   Gusts: NA
Location:  32.6187°N, 83.5735°W
Report Text: KWRB 272258Z AUTO 34014KT 10SM CLR 10/M03 A2998 RMK AO2 PRESRR SLP156 T00971030
Loading
Personal Weather Stations






























Interactive Weather Map New forecast layout! Learn more

10-Day Weather Forecast

Advertisements
Track Severe Weather on mobile